sensor_id;sensor_type;location;lat;lon;timestamp;P1;durP1;ratioP1;P2;durP2;ratioP2
28934;SDS011;16044;52.726;-2.108;2024-03-17T00:01:45;33.25;;;10.57;;
28934;SDS011;16044;52.726;-2.108;2024-03-17T00:04:14;29.63;;;10.43;;
28934;SDS011;16044;52.726;-2.108;2024-03-17T00:06:41;32.30;;;10.32;;
28934;SDS011;16044;52.726;-2.108;2024-03-17T00:09:13;31.92;;;10.38;;
28934;SDS011;16044;52.726;-2.108;2024-03-17T00:11:39;41.60;;;10.85;;
28934;SDS011;16044;52.726;-2.108;2024-03-17T00:14:08;36.63;;;10.30;;
28934;SDS011;16044;52.726;-2.108;2024-03-17T00:16:35;30.63;;;9.20;;
28934;SDS011;16044;52.726;-2.108;2024-03-17T00:19:04;33.08;;;9.23;;
28934;SDS011;16044;52.726;-2.108;2024-03-17T00:21:31;25.98;;;8.70;;
28934;SDS011;16044;52.726;-2.108;2024-03-17T00:24:00;26.73;;;8.65;;
28934;SDS011;16044;52.726;-2.108;2024-03-17T00:26:32;38.15;;;9.13;;
28934;SDS011;16044;52.726;-2.108;2024-03-17T00:28:59;21.00;;;7.45;;
28934;SDS011;16044;52.726;-2.108;2024-03-17T00:31:28;30.13;;;8.68;;
28934;SDS011;16044;52.726;-2.108;2024-03-17T00:33:57;35.58;;;8.93;;
28934;SDS011;16044;52.726;-2.108;2024-03-17T00:36:26;31.05;;;8.80;;
28934;SDS011;16044;52.726;-2.108;2024-03-17T00:38:53;26.30;;;8.45;;
28934;SDS011;16044;52.726;-2.108;2024-03-17T00:41:22;28.80;;;8.07;;
28934;SDS011;16044;52.726;-2.108;2024-03-17T00:43:51;30.30;;;7.88;;
28934;SDS011;16044;52.726;-2.108;2024-03-17T00:46:20;28.08;;;7.40;;
28934;SDS011;16044;52.726;-2.108;2024-03-17T00:48:48;29.38;;;7.25;;
28934;SDS011;16044;52.726;-2.108;2024-03-17T00:51:17;25.90;;;7.13;;
28934;SDS011;16044;52.726;-2.108;2024-03-17T00:53:44;31.02;;;7.85;;
28934;SDS011;16044;52.726;-2.108;2024-03-17T00:56:13;22.60;;;6.75;;
28934;SDS011;16044;52.726;-2.108;2024-03-17T00:58:39;25.95;;;7.43;;
28934;SDS011;16044;52.726;-2.108;2024-03-17T01:01:12;30.40;;;7.82;;
28934;SDS011;16044;52.726;-2.108;2024-03-17T01:03:39;35.63;;;8.23;;
28934;SDS011;16044;52.726;-2.108;2024-03-17T01:06:08;26.45;;;6.68;;
28934;SDS011;16044;52.726;-2.108;2024-03-17T01:08:34;39.45;;;8.32;;
28934;SDS011;16044;52.726;-2.108;2024-03-17T01:11:04;32.70;;;6.90;;
28934;SDS011;16044;52.726;-2.108;2024-03-17T01:13:34;27.52;;;7.03;;
28934;SDS011;16044;52.726;-2.108;2024-03-17T01:16:07;30.15;;;7.25;;
28934;SDS011;16044;52.726;-2.108;2024-03-17T01:18:36;34.83;;;7.38;;
28934;SDS011;16044;52.726;-2.108;2024-03-17T01:21:05;32.72;;;7.22;;
28934;SDS011;16044;52.726;-2.108;2024-03-17T01:23:32;23.65;;;6.10;;
28934;SDS011;16044;52.726;-2.108;2024-03-17T01:26:01;38.30;;;7.97;;
28934;SDS011;16044;52.726;-2.108;2024-03-17T01:28:28;40.20;;;7.25;;
28934;SDS011;16044;52.726;-2.108;2024-03-17T01:30:57;32.17;;;7.35;;
28934;SDS011;16044;52.726;-2.108;2024-03-17T01:33:24;30.45;;;6.93;;
28934;SDS011;16044;52.726;-2.108;2024-03-17T01:35:56;40.50;;;7.57;;
28934;SDS011;16044;52.726;-2.108;2024-03-17T01:38:22;28.88;;;6.75;;
28934;SDS011;16044;52.726;-2.108;2024-03-17T01:40:51;30.50;;;6.65;;
28934;SDS011;16044;52.726;-2.108;2024-03-17T01:43:20;32.85;;;6.45;;
28934;SDS011;16044;52.726;-2.108;2024-03-17T01:45:47;32.63;;;7.82;;
28934;SDS011;16044;52.726;-2.108;2024-03-17T01:48:16;44.83;;;7.82;;
28934;SDS011;16044;52.726;-2.108;2024-03-17T01:50:45;41.75;;;7.78;;
28934;SDS011;16044;52.726;-2.108;2024-03-17T01:53:18;33.53;;;8.18;;
28934;SDS011;16044;52.726;-2.108;2024-03-17T01:55:49;37.55;;;8.63;;
28934;SDS011;16044;52.726;-2.108;2024-03-17T01:58:16;42.28;;;8.15;;
28934;SDS011;16044;52.726;-2.108;2024-03-17T02:00:48;32.60;;;7.95;;
28934;SDS011;16044;52.726;-2.108;2024-03-17T02:03:14;34.63;;;8.00;;
28934;SDS011;16044;52.726;-2.108;2024-03-17T02:05:44;41.72;;;8.90;;
28934;SDS011;16044;52.726;-2.108;2024-03-17T02:08:11;45.65;;;8.77;;
28934;SDS011;16044;52.726;-2.108;2024-03-17T02:10:42;35.28;;;8.13;;
28934;SDS011;16044;52.726;-2.108;2024-03-17T02:13:09;38.00;;;8.57;;
28934;SDS011;16044;52.726;-2.108;2024-03-17T02:15:38;34.97;;;8.50;;
28934;SDS011;16044;52.726;-2.108;2024-03-17T02:18:05;38.80;;;8.93;;
28934;SDS011;16044;52.726;-2.108;2024-03-17T02:20:34;42.85;;;8.93;;
28934;SDS011;16044;52.726;-2.108;2024-03-17T02:23:18;43.30;;;8.02;;
28934;SDS011;16044;52.726;-2.108;2024-03-17T02:25:47;34.50;;;7.07;;
28934;SDS011;16044;52.726;-2.108;2024-03-17T02:28:16;41.08;;;8.07;;
28934;SDS011;16044;52.726;-2.108;2024-03-17T02:30:42;35.80;;;7.53;;
28934;SDS011;16044;52.726;-2.108;2024-03-17T02:33:12;31.15;;;6.85;;
28934;SDS011;16044;52.726;-2.108;2024-03-17T02:35:38;47.72;;;7.13;;
28934;SDS011;16044;52.726;-2.108;2024-03-17T02:38:09;33.10;;;7.28;;
28934;SDS011;16044;52.726;-2.108;2024-03-17T02:40:43;40.75;;;7.35;;
28934;SDS011;16044;52.726;-2.108;2024-03-17T02:43:12;30.08;;;6.70;;
28934;SDS011;16044;52.726;-2.108;2024-03-17T02:45:42;33.95;;;7.13;;
28934;SDS011;16044;52.726;-2.108;2024-03-17T02:48:13;33.17;;;6.32;;
28934;SDS011;16044;52.726;-2.108;2024-03-17T02:50:42;35.53;;;7.25;;
28934;SDS011;16044;52.726;-2.108;2024-03-17T02:53:11;35.90;;;7.25;;
28934;SDS011;16044;52.726;-2.108;2024-03-17T02:55:43;37.45;;;7.72;;
28934;SDS011;16044;52.726;-2.108;2024-03-17T02:58:15;39.80;;;7.43;;
28934;SDS011;16044;52.726;-2.108;2024-03-17T03:00:44;36.13;;;7.38;;
28934;SDS011;16044;52.726;-2.108;2024-03-17T03:03:13;34.13;;;7.40;;
28934;SDS011;16044;52.726;-2.108;2024-03-17T03:05:42;29.40;;;6.60;;
28934;SDS011;16044;52.726;-2.108;2024-03-17T03:08:11;34.08;;;7.47;;
28934;SDS011;16044;52.726;-2.108;2024-03-17T03:10:46;37.70;;;7.72;;
28934;SDS011;16044;52.726;-2.108;2024-03-17T03:13:15;37.38;;;7.55;;
28934;SDS011;16044;52.726;-2.108;2024-03-17T03:15:46;31.80;;;7.03;;
28934;SDS011;16044;52.726;-2.108;2024-03-17T03:18:16;31.67;;;7.05;;
28934;SDS011;16044;52.726;-2.108;2024-03-17T03:20:49;30.58;;;6.53;;
28934;SDS011;16044;52.726;-2.108;2024-03-17T03:23:20;29.70;;;6.65;;
28934;SDS011;16044;52.726;-2.108;2024-03-17T03:25:56;26.55;;;6.50;;
28934;SDS011;16044;52.726;-2.108;2024-03-17T03:28:29;23.42;;;5.82;;
28934;SDS011;16044;52.726;-2.108;2024-03-17T03:31:00;26.00;;;5.50;;
28934;SDS011;16044;52.726;-2.108;2024-03-17T03:33:29;27.38;;;5.05;;
28934;SDS011;16044;52.726;-2.108;2024-03-17T03:35:59;24.63;;;4.70;;
28934;SDS011;16044;52.726;-2.108;2024-03-17T03:38:37;22.45;;;4.65;;
28934;SDS011;16044;52.726;-2.108;2024-03-17T03:41:09;18.27;;;4.38;;
28934;SDS011;16044;52.726;-2.108;2024-03-17T03:43:42;21.52;;;4.35;;
28934;SDS011;16044;52.726;-2.108;2024-03-17T03:46:12;14.02;;;3.58;;
28934;SDS011;16044;52.726;-2.108;2024-03-17T03:48:41;17.92;;;3.83;;
28934;SDS011;16044;52.726;-2.108;2024-03-17T03:51:10;15.23;;;3.38;;
28934;SDS011;16044;52.726;-2.108;2024-03-17T03:53:39;11.15;;;3.05;;
28934;SDS011;16044;52.726;-2.108;2024-03-17T03:56:11;15.35;;;3.60;;
28934;SDS011;16044;52.726;-2.108;2024-03-17T03:58:40;17.23;;;3.47;;
28934;SDS011;16044;52.726;-2.108;2024-03-17T04:01:11;13.05;;;3.67;;
28934;SDS011;16044;52.726;-2.108;2024-03-17T04:03:46;18.05;;;3.15;;
28934;SDS011;16044;52.726;-2.108;2024-03-17T04:06:16;14.68;;;3.88;;
28934;SDS011;16044;52.726;-2.108;2024-03-17T04:08:46;14.02;;;3.40;;
28934;SDS011;16044;52.726;-2.108;2024-03-17T04:11:18;17.15;;;3.13;;
28934;SDS011;16044;52.726;-2.108;2024-03-17T04:13:47;14.02;;;3.38;;
28934;SDS011;16044;52.726;-2.108;2024-03-17T04:16:16;17.35;;;3.20;;
28934;SDS011;16044;52.726;-2.108;2024-03-17T04:18:46;16.80;;;3.47;;
28934;SDS011;16044;52.726;-2.108;2024-03-17T04:21:16;10.68;;;3.20;;
28934;SDS011;16044;52.726;-2.108;2024-03-17T04:23:46;14.07;;;2.83;;
28934;SDS011;16044;52.726;-2.108;2024-03-17T04:26:18;13.52;;;2.88;;
28934;SDS011;16044;52.726;-2.108;2024-03-17T04:28:47;15.07;;;3.20;;
28934;SDS011;16044;52.726;-2.108;2024-03-17T04:31:14;13.93;;;2.88;;
28934;SDS011;16044;52.726;-2.108;2024-03-17T04:33:43;11.25;;;2.38;;
28934;SDS011;16044;52.726;-2.108;2024-03-17T04:36:12;14.63;;;2.97;;
28934;SDS011;16044;52.726;-2.108;2024-03-17T04:38:42;11.57;;;2.50;;
28934;SDS011;16044;52.726;-2.108;2024-03-17T04:41:14;11.68;;;2.90;;
28934;SDS011;16044;52.726;-2.108;2024-03-17T04:46:15;11.95;;;2.85;;
28934;SDS011;16044;52.726;-2.108;2024-03-17T04:48:44;10.52;;;2.80;;
28934;SDS011;16044;52.726;-2.108;2024-03-17T04:51:15;10.20;;;2.47;;
28934;SDS011;16044;52.726;-2.108;2024-03-17T04:53:44;9.93;;;2.63;;
28934;SDS011;16044;52.726;-2.108;2024-03-17T04:56:13;12.93;;;2.80;;
28934;SDS011;16044;52.726;-2.108;2024-03-17T04:58:45;10.93;;;2.70;;
28934;SDS011;16044;52.726;-2.108;2024-03-17T05:01:14;10.05;;;2.80;;
28934;SDS011;16044;52.726;-2.108;2024-03-17T05:03:43;10.95;;;3.50;;
28934;SDS011;16044;52.726;-2.108;2024-03-17T05:06:12;10.77;;;2.78;;
28934;SDS011;16044;52.726;-2.108;2024-03-17T05:08:42;7.10;;;2.60;;
28934;SDS011;16044;52.726;-2.108;2024-03-17T05:11:11;6.70;;;2.10;;
28934;SDS011;16044;52.726;-2.108;2024-03-17T05:13:41;11.57;;;2.60;;
28934;SDS011;16044;52.726;-2.108;2024-03-17T05:16:13;5.72;;;2.20;;
28934;SDS011;16044;52.726;-2.108;2024-03-17T05:18:43;9.77;;;2.40;;
28934;SDS011;16044;52.726;-2.108;2024-03-17T05:21:12;8.95;;;2.35;;
28934;SDS011;16044;52.726;-2.108;2024-03-17T05:23:41;7.65;;;2.45;;
28934;SDS011;16044;52.726;-2.108;2024-03-17T05:26:10;6.82;;;2.63;;
28934;SDS011;16044;52.726;-2.108;2024-03-17T05:28:39;7.00;;;2.60;;
28934;SDS011;16044;52.726;-2.108;2024-03-17T05:31:11;7.55;;;2.65;;
28934;SDS011;16044;52.726;-2.108;2024-03-17T05:33:43;7.68;;;2.20;;
28934;SDS011;16044;52.726;-2.108;2024-03-17T05:36:13;10.48;;;2.38;;
28934;SDS011;16044;52.726;-2.108;2024-03-17T05:38:45;7.05;;;2.08;;
28934;SDS011;16044;52.726;-2.108;2024-03-17T05:41:15;5.57;;;1.90;;
28934;SDS011;16044;52.726;-2.108;2024-03-17T05:43:44;8.82;;;2.03;;
28934;SDS011;16044;52.726;-2.108;2024-03-17T05:46:17;13.75;;;2.20;;
28934;SDS011;16044;52.726;-2.108;2024-03-17T05:48:46;7.70;;;1.85;;
28934;SDS011;16044;52.726;-2.108;2024-03-17T05:51:15;7.35;;;2.05;;
28934;SDS011;16044;52.726;-2.108;2024-03-17T05:53:44;6.53;;;1.77;;
28934;SDS011;16044;52.726;-2.108;2024-03-17T05:56:14;6.30;;;1.73;;
28934;SDS011;16044;52.726;-2.108;2024-03-17T05:58:43;5.03;;;1.48;;
28934;SDS011;16044;52.726;-2.108;2024-03-17T06:01:13;6.70;;;1.73;;
28934;SDS011;16044;52.726;-2.108;2024-03-17T06:03:46;5.10;;;1.77;;
28934;SDS011;16044;52.726;-2.108;2024-03-17T06:06:15;5.75;;;1.45;;
28934;SDS011;16044;52.726;-2.108;2024-03-17T06:08:45;9.15;;;1.95;;
28934;SDS011;16044;52.726;-2.108;2024-03-17T06:11:15;7.50;;;2.10;;
28934;SDS011;16044;52.726;-2.108;2024-03-17T06:13:44;5.32;;;1.90;;
28934;SDS011;16044;52.726;-2.108;2024-03-17T06:16:13;7.30;;;2.00;;
28934;SDS011;16044;52.726;-2.108;2024-03-17T06:18:44;7.13;;;1.95;;
28934;SDS011;16044;52.726;-2.108;2024-03-17T06:21:16;5.82;;;1.90;;
28934;SDS011;16044;52.726;-2.108;2024-03-17T06:23:45;6.13;;;1.90;;
28934;SDS011;16044;52.726;-2.108;2024-03-17T06:26:14;6.70;;;1.88;;
28934;SDS011;16044;52.726;-2.108;2024-03-17T06:28:43;3.55;;;1.60;;
28934;SDS011;16044;52.726;-2.108;2024-03-17T06:31:12;4.32;;;1.48;;
28934;SDS011;16044;52.726;-2.108;2024-03-17T06:33:41;5.40;;;1.70;;
28934;SDS011;16044;52.726;-2.108;2024-03-17T06:36:13;6.47;;;2.20;;
28934;SDS011;16044;52.726;-2.108;2024-03-17T06:38:43;7.78;;;2.05;;
28934;SDS011;16044;52.726;-2.108;2024-03-17T06:41:12;6.05;;;1.70;;
28934;SDS011;16044;52.726;-2.108;2024-03-17T06:43:42;5.50;;;1.90;;
28934;SDS011;16044;52.726;-2.108;2024-03-17T06:46:11;4.63;;;1.80;;
28934;SDS011;16044;52.726;-2.108;2024-03-17T06:48:40;6.38;;;1.70;;
28934;SDS011;16044;52.726;-2.108;2024-03-17T06:51:09;4.60;;;1.60;;
28934;SDS011;16044;52.726;-2.108;2024-03-17T06:53:41;4.65;;;1.70;;
28934;SDS011;16044;52.726;-2.108;2024-03-17T06:56:10;6.50;;;1.50;;
28934;SDS011;16044;52.726;-2.108;2024-03-17T06:58:39;5.25;;;1.85;;
28934;SDS011;16044;52.726;-2.108;2024-03-17T07:01:08;4.78;;;1.65;;
28934;SDS011;16044;52.726;-2.108;2024-03-17T07:03:38;3.78;;;1.80;;
28934;SDS011;16044;52.726;-2.108;2024-03-17T07:06:07;4.13;;;1.52;;
28934;SDS011;16044;52.726;-2.108;2024-03-17T07:08:41;4.70;;;1.60;;
28934;SDS011;16044;52.726;-2.108;2024-03-17T07:11:10;4.03;;;1.50;;
28934;SDS011;16044;52.726;-2.108;2024-03-17T07:13:39;5.65;;;1.20;;
28934;SDS011;16044;52.726;-2.108;2024-03-17T07:16:09;2.70;;;1.13;;
28934;SDS011;16044;52.726;-2.108;2024-03-17T07:18:38;3.22;;;1.20;;
28934;SDS011;16044;52.726;-2.108;2024-03-17T07:21:09;2.50;;;1.15;;
28934;SDS011;16044;52.726;-2.108;2024-03-17T07:23:41;2.72;;;1.10;;
28934;SDS011;16044;52.726;-2.108;2024-03-17T07:26:10;4.90;;;1.00;;
28934;SDS011;16044;52.726;-2.108;2024-03-17T07:28:39;3.42;;;1.00;;
28934;SDS011;16044;52.726;-2.108;2024-03-17T07:31:10;3.50;;;1.20;;
28934;SDS011;16044;52.726;-2.108;2024-03-17T07:33:39;2.78;;;1.10;;
28934;SDS011;16044;52.726;-2.108;2024-03-17T07:36:08;3.75;;;1.48;;
28934;SDS011;16044;52.726;-2.108;2024-03-17T07:38:38;4.25;;;1.20;;
28934;SDS011;16044;52.726;-2.108;2024-03-17T07:41:09;4.32;;;1.35;;
28934;SDS011;16044;52.726;-2.108;2024-03-17T07:43:39;3.75;;;1.20;;
28934;SDS011;16044;52.726;-2.108;2024-03-17T07:46:08;3.00;;;1.27;;
28934;SDS011;16044;52.726;-2.108;2024-03-17T07:48:40;3.70;;;1.70;;
28934;SDS011;16044;52.726;-2.108;2024-03-17T07:51:11;3.60;;;1.58;;
28934;SDS011;16044;52.726;-2.108;2024-03-17T07:53:45;3.83;;;1.50;;
28934;SDS011;16044;52.726;-2.108;2024-03-17T07:58:46;3.40;;;1.80;;
28934;SDS011;16044;52.726;-2.108;2024-03-17T08:01:16;2.90;;;1.40;;
28934;SDS011;16044;52.726;-2.108;2024-03-17T08:03:46;5.05;;;1.80;;
28934;SDS011;16044;52.726;-2.108;2024-03-17T08:06:21;2.80;;;1.38;;
28934;SDS011;16044;52.726;-2.108;2024-03-17T08:08:53;2.42;;;1.25;;
28934;SDS011;16044;52.726;-2.108;2024-03-17T08:11:22;3.13;;;1.42;;
28934;SDS011;16044;52.726;-2.108;2024-03-17T08:13:52;3.80;;;1.33;;
28934;SDS011;16044;52.726;-2.108;2024-03-17T08:16:22;2.83;;;1.25;;
28934;SDS011;16044;52.726;-2.108;2024-03-17T08:18:51;3.28;;;1.75;;
28934;SDS011;16044;52.726;-2.108;2024-03-17T08:21:20;5.05;;;1.77;;
28934;SDS011;16044;52.726;-2.108;2024-03-17T08:23:49;3.95;;;1.80;;
28934;SDS011;16044;52.726;-2.108;2024-03-17T08:26:21;5.32;;;1.88;;
28934;SDS011;16044;52.726;-2.108;2024-03-17T08:28:50;5.03;;;1.60;;
28934;SDS011;16044;52.726;-2.108;2024-03-17T08:31:20;5.95;;;2.13;;
28934;SDS011;16044;52.726;-2.108;2024-03-17T08:33:49;7.68;;;2.00;;
28934;SDS011;16044;52.726;-2.108;2024-03-17T08:36:18;6.65;;;2.17;;
28934;SDS011;16044;52.726;-2.108;2024-03-17T08:38:48;3.97;;;1.80;;
28934;SDS011;16044;52.726;-2.108;2024-03-17T08:41:20;5.03;;;1.50;;
28934;SDS011;16044;52.726;-2.108;2024-03-17T08:43:49;3.45;;;1.52;;
28934;SDS011;16044;52.726;-2.108;2024-03-17T08:46:18;3.47;;;1.50;;
28934;SDS011;16044;52.726;-2.108;2024-03-17T08:48:47;4.38;;;1.20;;
28934;SDS011;16044;52.726;-2.108;2024-03-17T08:51:16;3.08;;;0.90;;
28934;SDS011;16044;52.726;-2.108;2024-03-17T08:53:46;4.65;;;1.20;;
28934;SDS011;16044;52.726;-2.108;2024-03-17T08:56:15;3.58;;;1.20;;
28934;SDS011;16044;52.726;-2.108;2024-03-17T08:58:48;2.90;;;1.20;;
28934;SDS011;16044;52.726;-2.108;2024-03-17T09:01:17;3.22;;;1.55;;
28934;SDS011;16044;52.726;-2.108;2024-03-17T09:03:46;3.75;;;1.50;;
28934;SDS011;16044;52.726;-2.108;2024-03-17T09:06:17;2.13;;;0.80;;
28934;SDS011;16044;52.726;-2.108;2024-03-17T09:08:47;3.42;;;1.00;;
28934;SDS011;16044;52.726;-2.108;2024-03-17T09:11:17;2.30;;;0.88;;
28934;SDS011;16044;52.726;-2.108;2024-03-17T09:13:53;2.78;;;0.85;;
28934;SDS011;16044;52.726;-2.108;2024-03-17T09:16:24;2.88;;;1.08;;
28934;SDS011;16044;52.726;-2.108;2024-03-17T09:18:55;4.30;;;1.20;;
28934;SDS011;16044;52.726;-2.108;2024-03-17T09:21:25;2.40;;;1.20;;
28934;SDS011;16044;52.726;-2.108;2024-03-17T09:23:54;3.15;;;1.15;;
28934;SDS011;16044;52.726;-2.108;2024-03-17T09:26:25;2.67;;;1.40;;
28934;SDS011;16044;52.726;-2.108;2024-03-17T09:28:57;2.20;;;1.10;;
28934;SDS011;16044;52.726;-2.108;2024-03-17T09:31:26;5.15;;;1.40;;
28934;SDS011;16044;52.726;-2.108;2024-03-17T09:33:56;3.63;;;1.20;;
28934;SDS011;16044;52.726;-2.108;2024-03-17T09:36:25;2.35;;;1.08;;
28934;SDS011;16044;52.726;-2.108;2024-03-17T09:38:54;3.40;;;1.13;;
28934;SDS011;16044;52.726;-2.108;2024-03-17T09:41:23;3.42;;;1.27;;
28934;SDS011;16044;52.726;-2.108;2024-03-17T09:43:57;3.42;;;1.27;;
28934;SDS011;16044;52.726;-2.108;2024-03-17T09:46:27;5.63;;;1.25;;
28934;SDS011;16044;52.726;-2.108;2024-03-17T09:48:57;2.63;;;1.35;;
28934;SDS011;16044;52.726;-2.108;2024-03-17T09:51:26;4.63;;;1.65;;
28934;SDS011;16044;52.726;-2.108;2024-03-17T09:53:55;2.75;;;1.10;;
28934;SDS011;16044;52.726;-2.108;2024-03-17T09:56:24;3.38;;;1.35;;
28934;SDS011;16044;52.726;-2.108;2024-03-17T09:58:53;5.20;;;1.52;;
28934;SDS011;16044;52.726;-2.108;2024-03-17T10:01:25;6.28;;;1.58;;
28934;SDS011;16044;52.726;-2.108;2024-03-17T10:03:54;3.72;;;1.60;;
28934;SDS011;16044;52.726;-2.108;2024-03-17T10:06:24;2.40;;;1.38;;
28934;SDS011;16044;52.726;-2.108;2024-03-17T10:08:56;3.75;;;1.48;;
28934;SDS011;16044;52.726;-2.108;2024-03-17T10:11:32;3.95;;;1.77;;
28934;SDS011;16044;52.726;-2.108;2024-03-17T10:14:05;3.55;;;1.40;;
28934;SDS011;16044;52.726;-2.108;2024-03-17T10:16:37;4.57;;;1.40;;
28934;SDS011;16044;52.726;-2.108;2024-03-17T10:19:10;2.85;;;1.30;;
28934;SDS011;16044;52.726;-2.108;2024-03-17T10:21:41;3.45;;;1.45;;
28934;SDS011;16044;52.726;-2.108;2024-03-17T10:24:14;3.40;;;1.23;;
28934;SDS011;16044;52.726;-2.108;2024-03-17T10:26:49;2.22;;;1.23;;
28934;SDS011;16044;52.726;-2.108;2024-03-17T10:29:24;3.72;;;1.60;;
28934;SDS011;16044;52.726;-2.108;2024-03-17T10:31:56;2.90;;;1.33;;
28934;SDS011;16044;52.726;-2.108;2024-03-17T10:34:28;2.63;;;1.20;;
28934;SDS011;16044;52.726;-2.108;2024-03-17T10:37:05;4.00;;;1.30;;
28934;SDS011;16044;52.726;-2.108;2024-03-17T10:39:38;3.13;;;1.30;;
28934;SDS011;16044;52.726;-2.108;2024-03-17T10:42:09;2.22;;;1.10;;
28934;SDS011;16044;52.726;-2.108;2024-03-17T10:44:42;3.22;;;0.90;;
28934;SDS011;16044;52.726;-2.108;2024-03-17T10:47:16;3.33;;;0.80;;
28934;SDS011;16044;52.726;-2.108;2024-03-17T10:49:50;2.05;;;0.95;;
28934;SDS011;16044;52.726;-2.108;2024-03-17T10:52:21;2.78;;;0.80;;
28934;SDS011;16044;52.726;-2.108;2024-03-17T10:54:54;1.88;;;0.90;;
28934;SDS011;16044;52.726;-2.108;2024-03-17T10:57:27;3.15;;;0.90;;
28934;SDS011;16044;52.726;-2.108;2024-03-17T11:00:03;3.33;;;0.88;;
28934;SDS011;16044;52.726;-2.108;2024-03-17T11:02:35;3.33;;;0.85;;
28934;SDS011;16044;52.726;-2.108;2024-03-17T11:05:05;2.97;;;0.90;;
28934;SDS011;16044;52.726;-2.108;2024-03-17T11:07:45;1.45;;;0.63;;
28934;SDS011;16044;52.726;-2.108;2024-03-17T11:10:18;1.85;;;0.80;;
28934;SDS011;16044;52.726;-2.108;2024-03-17T11:12:50;1.35;;;0.73;;
28934;SDS011;16044;52.726;-2.108;2024-03-17T11:15:40;1.23;;;0.52;;
28934;SDS011;16044;52.726;-2.108;2024-03-17T11:21:21;1.42;;;0.60;;
28934;SDS011;16044;52.726;-2.108;2024-03-17T11:29:02;1.77;;;0.52;;
28934;SDS011;16044;52.726;-2.108;2024-03-17T11:31:39;1.95;;;0.65;;
28934;SDS011;16044;52.726;-2.108;2024-03-17T11:37:05;2.83;;;0.55;;
28934;SDS011;16044;52.726;-2.108;2024-03-17T11:42:27;1.85;;;0.60;;
28934;SDS011;16044;52.726;-2.108;2024-03-17T11:45:01;2.95;;;0.60;;
28934;SDS011;16044;52.726;-2.108;2024-03-17T11:47:38;1.02;;;0.50;;
28934;SDS011;16044;52.726;-2.108;2024-03-17T11:50:07;4.32;;;0.88;;
28934;SDS011;16044;52.726;-2.108;2024-03-17T11:52:38;1.25;;;0.57;;
28934;SDS011;16044;52.726;-2.108;2024-03-17T11:55:17;1.85;;;0.57;;
28934;SDS011;16044;52.726;-2.108;2024-03-17T11:57:47;0.98;;;0.32;;
28934;SDS011;16044;52.726;-2.108;2024-03-17T12:00:22;1.23;;;0.40;;
28934;SDS011;16044;52.726;-2.108;2024-03-17T12:02:55;1.17;;;0.40;;
28934;SDS011;16044;52.726;-2.108;2024-03-17T12:05:23;1.35;;;0.40;;
28934;SDS011;16044;52.726;-2.108;2024-03-17T12:07:53;0.47;;;0.28;;
28934;SDS011;16044;52.726;-2.108;2024-03-17T12:10:20;0.88;;;0.40;;
28934;SDS011;16044;52.726;-2.108;2024-03-17T12:12:49;2.58;;;0.40;;
28934;SDS011;16044;52.726;-2.108;2024-03-17T12:15:16;1.45;;;0.40;;
28934;SDS011;16044;52.726;-2.108;2024-03-17T12:17:51;1.02;;;0.40;;
28934;SDS011;16044;52.726;-2.108;2024-03-17T12:20:22;0.55;;;0.22;;
28934;SDS011;16044;52.726;-2.108;2024-03-17T12:22:51;2.65;;;0.30;;
28934;SDS011;16044;52.726;-2.108;2024-03-17T12:25:20;0.50;;;0.32;;
28934;SDS011;16044;52.726;-2.108;2024-03-17T12:27:52;1.17;;;0.40;;
28934;SDS011;16044;52.726;-2.108;2024-03-17T12:30:18;0.88;;;0.40;;
28934;SDS011;16044;52.726;-2.108;2024-03-17T12:32:48;1.45;;;0.50;;
28934;SDS011;16044;52.726;-2.108;2024-03-17T12:35:18;0.95;;;0.40;;
28934;SDS011;16044;52.726;-2.108;2024-03-17T12:37:47;2.58;;;0.50;;
28934;SDS011;16044;52.726;-2.108;2024-03-17T12:40:21;3.17;;;0.40;;
28934;SDS011;16044;52.726;-2.108;2024-03-17T12:42:54;2.53;;;0.47;;
28934;SDS011;16044;52.726;-2.108;2024-03-17T12:45:21;0.70;;;0.30;;
28934;SDS011;16044;52.726;-2.108;2024-03-17T12:47:51;1.60;;;0.38;;
28934;SDS011;16044;52.726;-2.108;2024-03-17T12:50:23;0.70;;;0.30;;
28934;SDS011;16044;52.726;-2.108;2024-03-17T12:52:52;0.43;;;0.30;;
28934;SDS011;16044;52.726;-2.108;2024-03-17T12:55:21;1.27;;;0.30;;
28934;SDS011;16044;52.726;-2.108;2024-03-17T12:58:06;2.17;;;0.40;;
28934;SDS011;16044;52.726;-2.108;2024-03-17T13:00:56;2.17;;;0.40;;
28934;SDS011;16044;52.726;-2.108;2024-03-17T13:03:27;1.02;;;0.30;;
28934;SDS011;16044;52.726;-2.108;2024-03-17T13:06:02;1.55;;;0.40;;
28934;SDS011;16044;52.726;-2.108;2024-03-17T13:08:34;1.58;;;0.50;;
28934;SDS011;16044;52.726;-2.108;2024-03-17T13:11:03;1.55;;;0.50;;
28934;SDS011;16044;52.726;-2.108;2024-03-17T13:13:34;1.90;;;0.43;;
28934;SDS011;16044;52.726;-2.108;2024-03-17T13:16:04;1.58;;;0.60;;
28934;SDS011;16044;52.726;-2.108;2024-03-17T13:18:34;0.80;;;0.40;;
28934;SDS011;16044;52.726;-2.108;2024-03-17T13:21:06;2.15;;;0.60;;
28934;SDS011;16044;52.726;-2.108;2024-03-17T13:23:35;2.50;;;0.50;;
28934;SDS011;16044;52.726;-2.108;2024-03-17T13:26:05;1.58;;;0.40;;
28934;SDS011;16044;52.726;-2.108;2024-03-17T13:28:34;2.78;;;0.60;;
28934;SDS011;16044;52.726;-2.108;2024-03-17T13:31:03;1.88;;;0.60;;
28934;SDS011;16044;52.726;-2.108;2024-03-17T13:33:32;4.03;;;0.70;;
28934;SDS011;16044;52.726;-2.108;2024-03-17T13:36:01;5.40;;;0.63;;
28934;SDS011;16044;52.726;-2.108;2024-03-17T13:38:34;3.15;;;0.60;;
28934;SDS011;16044;52.726;-2.108;2024-03-17T13:41:04;2.97;;;0.60;;
28934;SDS011;16044;52.726;-2.108;2024-03-17T13:43:35;6.88;;;1.10;;
28934;SDS011;16044;52.726;-2.108;2024-03-17T13:46:04;2.90;;;0.88;;
28934;SDS011;16044;52.726;-2.108;2024-03-17T13:48:33;6.07;;;1.10;;
28934;SDS011;16044;52.726;-2.108;2024-03-17T13:51:02;3.78;;;1.20;;
28934;SDS011;16044;52.726;-2.108;2024-03-17T13:53:35;5.00;;;1.00;;
28934;SDS011;16044;52.726;-2.108;2024-03-17T13:56:04;6.78;;;1.17;;
28934;SDS011;16044;52.726;-2.108;2024-03-17T13:58:35;7.35;;;1.58;;
28934;SDS011;16044;52.726;-2.108;2024-03-17T14:01:04;4.45;;;1.20;;
28934;SDS011;16044;52.726;-2.108;2024-03-17T14:03:33;7.53;;;1.35;;
28934;SDS011;16044;52.726;-2.108;2024-03-17T14:06:03;6.05;;;1.30;;
28934;SDS011;16044;52.726;-2.108;2024-03-17T14:08:36;7.55;;;1.50;;
28934;SDS011;16044;52.726;-2.108;2024-03-17T14:11:06;7.05;;;1.60;;
28934;SDS011;16044;52.726;-2.108;2024-03-17T14:13:35;5.10;;;1.50;;
28934;SDS011;16044;52.726;-2.108;2024-03-17T14:16:04;6.70;;;1.40;;
28934;SDS011;16044;52.726;-2.108;2024-03-17T14:18:33;5.32;;;1.20;;
28934;SDS011;16044;52.726;-2.108;2024-03-17T14:21:02;6.57;;;1.55;;
28934;SDS011;16044;52.726;-2.108;2024-03-17T14:23:32;7.18;;;1.38;;
28934;SDS011;16044;52.726;-2.108;2024-03-17T14:26:05;5.45;;;1.20;;
28934;SDS011;16044;52.726;-2.108;2024-03-17T14:28:34;8.20;;;1.55;;
28934;SDS011;16044;52.726;-2.108;2024-03-17T14:31:03;6.72;;;1.33;;
28934;SDS011;16044;52.726;-2.108;2024-03-17T14:33:33;5.60;;;0.93;;
28934;SDS011;16044;52.726;-2.108;2024-03-17T14:36:02;5.00;;;1.00;;
28934;SDS011;16044;52.726;-2.108;2024-03-17T14:38:33;5.85;;;0.93;;
28934;SDS011;16044;52.726;-2.108;2024-03-17T14:41:05;3.80;;;0.85;;
28934;SDS011;16044;52.726;-2.108;2024-03-17T14:43:35;3.63;;;1.10;;
28934;SDS011;16044;52.726;-2.108;2024-03-17T14:46:05;6.88;;;1.10;;
28934;SDS011;16044;52.726;-2.108;2024-03-17T14:48:38;4.95;;;0.90;;
28934;SDS011;16044;52.726;-2.108;2024-03-17T14:51:08;7.28;;;0.90;;
28934;SDS011;16044;52.726;-2.108;2024-03-17T14:53:37;5.78;;;0.88;;
28934;SDS011;16044;52.726;-2.108;2024-03-17T14:56:16;5.25;;;1.10;;
28934;SDS011;16044;52.726;-2.108;2024-03-17T14:58:45;5.35;;;1.05;;
28934;SDS011;16044;52.726;-2.108;2024-03-17T15:01:16;4.63;;;1.23;;
28934;SDS011;16044;52.726;-2.108;2024-03-17T15:03:45;9.20;;;1.35;;
28934;SDS011;16044;52.726;-2.108;2024-03-17T15:06:14;6.93;;;1.30;;
28934;SDS011;16044;52.726;-2.108;2024-03-17T15:08:44;3.70;;;0.80;;